Churchill Airport
CYYQ : rendu visible

Aérodrome :











RETROUVEZ-NOUS SUR...

 
LOGIN :

S'inscrire | Disclaimer

   EN    FR    IT 

 









Légende :    VFR   VFR Marginal   IFR   IFR Intensif   IFR Très Intensif
Visi : 
Plafond : 
>= 8 km
>= 3000ft
5 à 8 km
1000 à 3000 ft
1500m à 5 km
500 à 1000 ft
800 à 1500m
200 à 500 ft
< 800m
< 200 ft
Symboles :   Orages  Brouillard  Fortes neiges  Fortes précipitations  Vent > 20 kt






- Altitude de l'aérodrome : 94 ft
- Code IATA : YYQ


CYYQ - Churchill

DERNIER METAR :
  • 231700Z 06014KT 3SM -SN DRSN OVC029 M17/M19 A2987 RMK SC8 VIS VRB 2-4 SLP119

METARs EXPIRÉS :
  • 231648Z 06012KT 2 1/2SM -SN DRSN OVC027 M17/M19 A2986 RMK SC8 SLP118
  • 231600Z 08012KT 4SM -SN OVC039 M17/M19 A2986 RMK SC8 SLP116
  • 231500Z 08014KT 4SM -SN DRSN OVC037 M18/M20 A2984 RMK SC8 SLP111

TAF TAF CYYQ
Valide du 23 à 12h jusqu'au 24 à 12h UTC


231138Z 2312/2412 09012KT 6SM -SN SCT020 BKN040
TEMPO 2312/2319 2SM -SN OVC020
FM231900 07012KT P6SM -SN BKN025 OVC050
TEMPO 2319/2408 3SM -SN BKN020 OVC040
FM240800 03015KT 6SM -SN BKN020 BKN060 RMK NXT FCST BY 231800Z



MET'MAP, la Météo Aéronautique d'un coup d'oeil ! - Copyright ORBIFLY Décembre 2007 - Disclaimer

ORBIFLY MET'MAP TEAM :

Programmation & Développement : Alexandra Zaïnal
Sur une idée originale de : Baudouin d'Aumeries
Assistance à la programmation : Marc-Olivier Méhu
Soutien technique & logistique : Manuel Goepfert

Contact : metmap@orbifly.com




SOURCES & CREDITS :

   NOAA       Earth
Advisory